Time;durP1;ratioP1;P1;durP2;ratioP2;P2;SDS_P1;SDS_P2;PMS_P1;PMS_P2;Temp;Humidity;BMP_temperature;BMP_pressure;BME280_temperature;BME280_humidity;BME280_pressure;Samples;Min_cycle;Max_cycle;Signal;HPM_P1;HPM_P2
2022/02/08 00:00:01;;;;;;;1.75;0.60;;;24.20;30.60;;;;;;5028209;28;20403;-67
2022/02/08 00:02:29;;;;;;;2.78;0.70;;;24.20;30.20;;;;;;5032056;28;20973;-67
2022/02/08 00:04:55;;;;;;;1.10;0.60;;;24.20;30.60;;;;;;5031624;28;20903;-67
2022/02/08 00:07:20;;;;;;;1.13;0.60;;;24.10;30.70;;;;;;5031994;28;20462;-67
2022/02/08 00:09:46;;;;;;;1.77;0.70;;;24.10;30.20;;;;;;5030802;28;20407;-67
2022/02/08 00:12:12;;;;;;;1.90;0.80;;;24.10;30.60;;;;;;5031884;28;20425;-67
2022/02/08 00:14:38;;;;;;;1.52;0.70;;;24.00;30.60;;;;;;5031951;28;20387;-68
2022/02/08 00:17:04;;;;;;;2.13;0.60;;;24.10;30.50;;;;;;5031109;28;20864;-68
2022/02/08 00:19:29;;;;;;;1.42;0.80;;;24.00;30.60;;;;;;5031785;28;20466;-67
2022/02/08 00:21:55;;;;;;;2.50;0.70;;;24.00;30.60;;;;;;5031831;28;20383;-68
2022/02/08 00:24:21;;;;;;;1.45;0.70;;;24.00;30.30;;;;;;5031659;28;20423;-67
2022/02/08 00:26:46;;;;;;;1.50;0.70;;;24.00;30.60;;;;;;5031284;28;20391;-68
2022/02/08 00:29:13;;;;;;;2.25;0.60;;;24.00;30.60;;;;;;5031617;28;20387;-68
2022/02/08 00:31:38;;;;;;;1.98;0.80;;;24.00;30.60;;;;;;5031732;28;20394;-68
2022/02/08 00:34:04;;;;;;;1.70;0.60;;;24.00;30.50;;;;;;5031719;28;20391;-67
2022/02/08 00:36:30;;;;;;;2.05;0.73;;;23.90;30.50;;;;;;5031673;28;20395;-68
2022/02/08 00:38:55;;;;;;;2.20;0.80;;;23.90;30.40;;;;;;5031204;28;20391;-67
2022/02/08 00:41:24;;;;;;;1.42;0.70;;;23.90;30.00;;;;;;5031452;28;20398;-68
2022/02/08 00:43:57;;;;;;;1.70;0.80;;;23.80;30.40;;;;;;5031475;28;20383;-67
2022/02/08 00:49:01;;;;;;;2.00;0.90;;;23.90;30.40;;;;;;5031144;28;20544;-68
2022/02/08 00:51:30;;;;;;;1.67;0.68;;;23.80;30.40;;;;;;5031421;28;20406;-67
2022/02/08 00:53:55;;;;;;;1.08;0.65;;;23.80;30.00;;;;;;5031538;28;20897;-68
2022/02/08 00:56:21;;;;;;;1.37;0.60;;;23.80;30.10;;;;;;5031343;28;20466;-67
2022/02/08 00:58:47;;;;;;;1.73;0.70;;;23.80;30.40;;;;;;5031141;28;20406;-67
2022/02/08 01:01:13;;;;;;;2.10;0.80;;;23.80;30.30;;;;;;5031412;28;20380;-68
2022/02/08 01:03:39;;;;;;;1.38;0.52;;;23.80;30.40;;;;;;5029951;28;20391;-67
2022/02/08 01:06:06;;;;;;;1.52;0.60;;;23.70;30.30;;;;;;5029933;28;20461;-70
2022/02/08 01:08:38;;;;;;;1.20;0.60;;;23.70;30.00;;;;;;5030089;28;20391;-67
2022/02/08 01:11:06;;;;;;;1.60;0.60;;;23.70;30.00;;;;;;5029660;28;20395;-68
2022/02/08 01:13:32;;;;;;;1.63;0.70;;;23.70;30.40;;;;;;5031313;28;20415;-67
2022/02/08 01:15:58;;;;;;;1.40;0.60;;;23.70;30.10;;;;;;5031301;28;20997;-68
2022/02/08 01:18:24;;;;;;;1.55;0.60;;;23.70;30.40;;;;;;5031283;28;20916;-67
2022/02/08 01:20:51;;;;;;;1.30;0.50;;;23.60;30.00;;;;;;5030825;28;20399;-68
2022/02/08 01:23:18;;;;;;;1.77;0.70;;;23.60;30.20;;;;;;5031154;28;20383;-68
2022/02/08 01:25:51;;;;;;;1.42;0.70;;;23.60;30.30;;;;;;5031245;28;20415;-67
2022/02/08 01:30:59;;;;;;;1.48;0.50;;;23.60;30.20;;;;;;5034380;28;20905;-67
2022/02/08 01:36:27;;;;;;;2.13;0.70;;;23.50;30.10;;;;;;5035052;28;20387;-67
2022/02/08 01:44:43;;;;;;;1.40;0.50;;;23.50;30.20;;;;;;5034675;28;20392;-67
2022/02/08 01:51:53;;;;;;;1.70;0.65;;;23.50;30.10;;;;;;5034687;28;20395;-67
2022/02/08 01:54:19;;;;;;;1.70;0.65;;;23.40;30.10;;;;;;5034492;28;20402;-67
2022/02/08 01:56:45;;;;;;;2.25;0.70;;;23.50;30.20;;;;;;5033268;28;20388;-68
2022/02/08 01:59:12;;;;;;;1.70;0.80;;;23.50;30.00;;;;;;5033928;28;20399;-67
2022/02/08 02:01:37;;;;;;;1.20;0.60;;;23.40;30.00;;;;;;5034395;28;20552;-67
2022/02/08 02:04:03;;;;;;;1.05;0.52;;;23.40;30.00;;;;;;5034265;28;20869;-67
2022/02/08 02:06:29;;;;;;;2.00;0.70;;;23.40;30.10;;;;;;5033008;28;20401;-67
2022/02/08 02:08:54;;;;;;;1.30;0.70;;;23.30;30.00;;;;;;5033867;28;20383;-68
2022/02/08 02:11:20;;;;;;;1.60;0.70;;;23.30;29.90;;;;;;5034591;28;20392;-67
2022/02/08 03:38:02;;;;;;;1.75;0.70;;;23.10;29.80;;;;;;4217562;28;20768;-67
2022/02/08 03:40:39;;;;;;;1.08;0.45;;;23.00;29.60;;;;;;5032505;28;20400;-67
2022/02/08 03:45:52;;;;;;;1.60;0.60;;;23.00;29.80;;;;;;5032458;28;20602;-68
2022/02/08 03:48:19;;;;;;;2.00;0.60;;;23.00;29.80;;;;;;5033176;28;20383;-67
2022/02/08 03:50:51;;;;;;;2.10;0.70;;;23.00;29.80;;;;;;5031148;28;20437;-68
2022/02/08 03:53:18;;;;;;;1.40;0.50;;;22.90;29.70;;;;;;5031553;28;20867;-67
2022/02/08 03:55:45;;;;;;;1.65;0.63;;;22.90;29.80;;;;;;5032000;28;20856;-67
2022/02/08 03:58:12;;;;;;;1.35;0.60;;;22.90;30.20;;;;;;5031002;28;20884;-68
2022/02/08 04:00:54;;;;;;;1.33;0.60;;;23.00;29.80;;;;;;5030844;28;20899;-67
2022/02/08 04:03:22;;;;;;;15.30;7.15;;;22.90;29.80;;;;;;5030611;28;20425;-67
2022/02/08 04:05:50;;;;;;;24.33;12.73;;;23.00;29.90;;;;;;5031882;28;20454;-68
2022/02/08 04:08:17;;;;;;;14.65;7.30;;;22.90;30.00;;;;;;5032062;28;20486;-67
2022/02/08 04:10:44;;;;;;;12.85;6.70;;;23.00;30.30;;;;;;5031983;28;20391;-74
2022/02/08 04:15:54;;;;;;;13.18;5.47;;;23.10;30.70;;;;;;5032137;28;20410;-67
2022/02/08 04:37:40;;;;;;;4.25;1.88;;;23.20;31.90;;;;;;5031159;28;20405;-67
2022/02/08 04:48:03;;;;;;;4.70;1.50;;;23.30;32.70;;;;;;5031671;28;20731;-68
2022/02/08 04:50:19;;;;;;;5.20;1.40;;;23.30;33.10;;;;;;5031858;28;20486;-67
2022/02/08 04:52:45;;;;;;;3.63;1.40;;;23.40;33.50;;;;;;5026561;28;20397;-67
2022/02/08 04:57:49;;;;;;;4.50;1.27;;;23.30;33.10;;;;;;5031077;28;20390;-67
2022/02/08 05:00:30;;;;;;;2.40;1.20;;;23.40;33.10;;;;;;5031314;28;20395;-67
2022/02/08 05:44:00;;;;;;;5.18;1.27;;;22.90;30.70;;;;;;5034566;28;20778;-66
2022/02/08 05:49:03;;;;;;;4.75;1.08;;;22.80;30.30;;;;;;5034508;28;20391;-67
2022/02/08 05:51:58;;;;;;;4.60;0.90;;;22.90;30.40;;;;;;5033061;28;20399;-67
2022/02/08 05:54:24;;;;;;;4.28;0.80;;;22.80;30.10;;;;;;5033056;28;20440;-68
2022/02/08 05:56:54;;;;;;;4.03;1.20;;;22.80;30.60;;;;;;5034659;28;20428;-68
2022/02/08 05:59:21;;;;;;;6.28;1.10;;;22.80;30.90;;;;;;5034508;28;20403;-66
2022/02/08 06:01:47;;;;;;;3.78;1.08;;;22.80;31.40;;;;;;5034292;28;20387;-67
2022/02/08 06:04:13;;;;;;;5.20;1.10;;;22.70;30.90;;;;;;5034123;28;20403;-67
2022/02/08 06:06:39;;;;;;;4.80;0.93;;;22.80;31.50;;;;;;5034095;28;20407;-67
2022/02/08 06:09:05;;;;;;;5.37;0.97;;;22.80;31.40;;;;;;5033509;28;20402;-67
2022/02/08 06:11:34;;;;;;;5.32;0.90;;;22.90;31.30;;;;;;5034170;28;20442;-67
2022/02/08 06:14:00;;;;;;;3.78;1.13;;;22.90;30.60;;;;;;5033982;28;20871;-69
2022/02/08 06:16:26;;;;;;;5.15;0.98;;;22.90;31.10;;;;;;5033460;28;20399;-67
2022/02/08 06:18:51;;;;;;;3.20;0.68;;;22.90;30.90;;;;;;5033968;28;20395;-67
2022/02/08 06:21:17;;;;;;;3.10;0.70;;;22.90;30.90;;;;;;5032262;28;20417;-67
2022/02/08 06:23:43;;;;;;;3.63;0.85;;;23.00;31.00;;;;;;5032355;28;20392;-67
2022/02/08 06:26:11;;;;;;;2.03;0.70;;;23.00;30.90;;;;;;5033777;28;20415;-67
2022/02/08 06:28:36;;;;;;;2.38;0.70;;;23.00;30.90;;;;;;5033780;28;20394;-71
2022/02/08 06:31:02;;;;;;;3.20;0.80;;;22.90;30.80;;;;;;5032441;28;20404;-73
2022/02/08 06:33:28;;;;;;;3.13;0.70;;;22.90;30.80;;;;;;5033784;28;20426;-73
2022/02/08 06:35:53;;;;;;;3.50;0.77;;;23.00;30.70;;;;;;5033956;28;20891;-76
2022/02/08 06:38:20;;;;;;;2.00;0.80;;;22.90;30.70;;;;;;5033510;28;20395;-70
2022/02/08 06:40:49;;;;;;;2.22;0.80;;;22.90;30.70;;;;;;5033829;28;20396;-74
2022/02/08 06:43:15;;;;;;;3.55;0.90;;;22.90;30.60;;;;;;5033658;28;20387;-76
2022/02/08 06:45:41;;;;;;;3.13;0.80;;;22.90;30.60;;;;;;5033725;28;20946;-71
2022/02/08 06:48:09;;;;;;;1.90;0.60;;;22.90;30.60;;;;;;5033893;28;20422;-75
2022/02/08 06:50:35;;;;;;;3.03;0.70;;;22.90;30.60;;;;;;5033738;28;20511;-71
2022/02/08 06:53:00;;;;;;;2.47;0.80;;;22.90;30.40;;;;;;5033640;28;20720;-73
2022/02/08 06:55:28;;;;;;;4.10;0.98;;;22.80;30.60;;;;;;5033197;28;20405;-72
2022/02/08 07:00:28;;;;;;;2.30;0.60;;;22.90;30.50;;;;;;5033378;28;20445;-67
2022/02/08 07:02:54;;;;;;;2.40;0.80;;;22.90;30.50;;;;;;5033293;28;20387;-67
2022/02/08 07:05:20;;;;;;;2.45;0.70;;;22.80;30.40;;;;;;5032759;28;20819;-73
2022/02/08 07:07:45;;;;;;;2.60;1.02;;;22.90;30.50;;;;;;5033158;28;20402;-67
2022/02/08 07:10:12;;;;;;;2.20;0.70;;;22.90;30.50;;;;;;5033169;28;20399;-67
2022/02/08 07:12:39;;;;;;;1.27;0.70;;;22.80;30.40;;;;;;5033023;28;20402;-66
2022/02/08 07:15:10;;;;;;;1.92;0.55;;;22.90;30.50;;;;;;5032794;28;20453;-67
2022/02/08 07:17:36;;;;;;;2.47;0.98;;;22.80;30.30;;;;;;5033113;28;20390;-76
2022/02/08 07:20:02;;;;;;;2.00;0.70;;;22.80;30.30;;;;;;5033382;28;20387;-75
2022/02/08 07:22:29;;;;;;;1.92;0.75;;;22.80;30.30;;;;;;5033294;28;20782;-74
2022/02/08 07:24:55;;;;;;;1.50;0.50;;;22.80;30.40;;;;;;5033167;28;20756;-77
2022/02/08 07:27:21;;;;;;;2.47;0.80;;;22.80;30.40;;;;;;5031999;28;20406;-75
2022/02/08 07:29:51;;;;;;;2.40;0.93;;;22.80;30.30;;;;;;5032985;28;20386;-75
2022/02/08 07:32:18;;;;;;;2.15;0.60;;;22.80;30.30;;;;;;5033312;28;20415;-75
2022/02/08 07:34:53;;;;;;;1.02;0.57;;;22.70;30.20;;;;;;5032988;28;20474;-73
2022/02/08 07:37:32;;;;;;;1.65;0.60;;;22.70;30.10;;;;;;5032564;28;20883;-76
2022/02/08 07:40:02;;;;;;;1.90;0.70;;;22.70;30.20;;;;;;5032847;28;20875;-75
2022/02/08 07:42:28;;;;;;;1.45;0.50;;;22.70;30.10;;;;;;5032986;28;20399;-76
2022/02/08 07:44:54;;;;;;;2.63;0.80;;;22.70;30.30;;;;;;5032716;28;20407;-72
2022/02/08 07:47:19;;;;;;;2.40;0.65;;;22.70;30.30;;;;;;5031131;28;20403;-76
2022/02/08 07:49:45;;;;;;;1.53;0.70;;;22.60;30.20;;;;;;5031421;28;20887;-75
2022/02/08 07:52:11;;;;;;;1.50;0.60;;;22.60;30.30;;;;;;5032625;28;20399;-75
2022/02/08 07:54:38;;;;;;;1.83;0.75;;;22.60;30.10;;;;;;5032480;28;20379;-75
2022/02/08 07:57:04;;;;;;;1.55;0.60;;;22.70;30.30;;;;;;5032632;28;20933;-75
2022/02/08 07:59:29;;;;;;;1.67;0.80;;;22.60;30.20;;;;;;5031945;28;20376;-67
2022/02/08 08:01:55;;;;;;;1.87;0.60;;;22.60;30.30;;;;;;5030693;28;20419;-69
2022/02/08 08:04:20;;;;;;;1.80;0.85;;;22.70;30.30;;;;;;5032355;28;20417;-72
2022/02/08 08:06:46;;;;;;;1.80;0.70;;;22.60;30.20;;;;;;5032336;28;20477;-71
2022/02/08 08:09:12;;;;;;;1.83;0.53;;;22.60;30.00;;;;;;5031729;28;20394;-68
2022/02/08 08:11:40;;;;;;;1.38;0.60;;;22.60;30.10;;;;;;5031971;28;20398;-67
2022/02/08 08:14:07;;;;;;;1.43;0.60;;;22.60;30.20;;;;;;5032119;28;20730;-73
2022/02/08 08:21:34;;;;;;;1.35;0.70;;;22.60;30.20;;;;;;5031697;28;20513;-68
2022/02/08 08:24:01;;;;;;;1.75;0.70;;;22.50;30.20;;;;;;5031195;28;20395;-73
2022/02/08 08:26:27;;;;;;;1.60;0.90;;;22.50;30.10;;;;;;5032041;28;20480;-72
2022/02/08 08:28:53;;;;;;;1.35;0.70;;;22.50;30.20;;;;;;5031748;28;20747;-73
2022/02/08 08:31:19;;;;;;;1.97;0.90;;;22.50;30.20;;;;;;5031363;28;20391;-73
2022/02/08 08:33:45;;;;;;;1.87;0.90;;;22.50;30.20;;;;;;5031812;28;20391;-72
2022/02/08 08:36:11;;;;;;;1.80;0.90;;;22.50;30.10;;;;;;5031831;28;20481;-69
2022/02/08 08:38:37;;;;;;;2.22;0.95;;;22.50;30.10;;;;;;5031361;28;20506;-73
2022/02/08 08:41:12;;;;;;;2.28;0.68;;;22.50;30.20;;;;;;5030506;28;20399;-71
2022/02/08 08:43:55;;;;;;;1.95;0.80;;;22.50;30.20;;;;;;5031684;28;20453;-69
2022/02/08 08:51:51;;;;;;;1.52;0.82;;;22.40;30.00;;;;;;5031614;28;20897;-69
2022/02/08 08:54:18;;;;;;;1.95;0.80;;;22.40;30.20;;;;;;5031612;28;20430;-69
2022/02/08 08:56:46;;;;;;;1.30;0.80;;;22.40;30.00;;;;;;5031566;28;20406;-69
2022/02/08 08:59:14;;;;;;;1.65;0.85;;;22.40;30.00;;;;;;5030330;28;20399;-74
2022/02/08 09:01:40;;;;;;;2.00;0.80;;;22.40;30.10;;;;;;5031592;28;20390;-74
2022/02/08 09:04:06;;;;;;;1.58;0.88;;;22.40;30.20;;;;;;5031542;28;20387;-70
2022/02/08 09:06:34;;;;;;;1.73;0.95;;;22.40;30.20;;;;;;5031546;28;20441;-70
2022/02/08 09:09:06;;;;;;;1.67;0.75;;;22.40;30.70;;;;;;5030113;28;20459;-67
2022/02/08 09:15:04;;;;;;;1.50;0.77;;;22.40;30.00;;;;;;5019175;28;20724;-66
2022/02/08 09:28:21;;;;;;;2.17;0.88;;;22.30;30.20;;;;;;5031753;28;20389;-75
2022/02/08 09:30:55;;;;;;;1.30;0.70;;;22.20;30.10;;;;;;5030292;28;20403;-75
2022/02/08 09:33:21;;;;;;;1.70;0.70;;;22.30;30.20;;;;;;5029800;28;20399;-75
2022/02/08 09:35:47;;;;;;;1.50;0.90;;;22.20;30.20;;;;;;5029995;28;20918;-75
2022/02/08 09:38:13;;;;;;;2.05;0.80;;;22.20;30.10;;;;;;5029404;28;20459;-71
2022/02/08 09:40:38;;;;;;;1.50;0.80;;;22.20;30.10;;;;;;5030860;28;20900;-72
2022/02/08 09:43:05;;;;;;;1.30;0.70;;;22.20;30.20;;;;;;5031231;28;20894;-73
2022/02/08 09:45:33;;;;;;;1.90;0.80;;;22.20;30.10;;;;;;5029375;28;20499;-73
2022/02/08 09:48:14;;;;;;;1.83;0.88;;;22.20;30.20;;;;;;5030941;28;20391;-73
2022/02/08 09:50:40;;;;;;;1.90;0.85;;;22.20;30.20;;;;;;5032708;28;20482;-73
2022/02/08 09:53:12;;;;;;;1.40;0.68;;;22.20;30.10;;;;;;5034885;28;20441;-75
2022/02/08 09:55:39;;;;;;;1.83;0.73;;;22.20;30.20;;;;;;5034648;28;20403;-72
2022/02/08 09:58:06;;;;;;;1.67;0.80;;;22.10;30.20;;;;;;5034695;28;20415;-74
2022/02/08 10:00:34;;;;;;;1.50;0.88;;;22.10;29.90;;;;;;5034504;28;20405;-75
2022/02/08 10:03:18;;;;;;;1.30;0.70;;;22.10;30.20;;;;;;5033717;28;20836;-75
2022/02/08 10:05:51;;;;;;;1.20;0.70;;;22.10;30.20;;;;;;5033324;28;20795;-75
2022/02/08 10:08:17;;;;;;;1.63;0.90;;;22.10;30.20;;;;;;5033081;28;20996;-73
2022/02/08 10:10:43;;;;;;;1.50;0.80;;;22.10;30.20;;;;;;5033304;28;20399;-74
2022/02/08 10:13:58;;;;;;;1.50;0.90;;;22.10;30.20;;;;;;5034506;28;20945;-73
2022/02/08 10:19:10;;;;;;;1.13;0.73;;;22.00;30.20;;;;;;5034464;28;20371;-66
2022/02/08 10:24:07;;;;;;;1.63;0.90;;;22.00;30.20;;;;;;5034146;28;20453;-70
2022/02/08 10:29:35;;;;;;;1.10;0.80;;;22.00;30.20;;;;;;5033821;28;20394;-74
2022/02/08 10:40:09;;;;;;;1.27;0.65;;;21.90;30.20;;;;;;5034194;28;20390;-71
2022/02/08 10:42:37;;;;;;;1.60;0.70;;;21.90;30.20;;;;;;5032801;28;20395;-67
2022/02/08 10:45:15;;;;;;;1.40;0.80;;;21.90;30.30;;;;;;5031785;28;20422;-73
2022/02/08 10:47:41;;;;;;;1.77;0.80;;;21.90;30.30;;;;;;5047017;28;20411;-73
2022/02/08 10:50:09;;;;;;;1.60;0.83;;;21.90;30.80;;;;;;5031693;28;20771;-67
2022/02/08 10:52:37;;;;;;;1.30;0.75;;;21.90;30.80;;;;;;5033085;28;20410;-74
2022/02/08 11:00:48;;;;;;;1.77;0.80;;;22.00;32.20;;;;;;5028231;28;20494;-72
2022/02/08 11:03:20;;;;;;;2.70;0.70;;;22.00;32.20;;;;;;5030860;28;20391;-70
2022/02/08 11:20:18;;;;;;;1.70;0.77;;;22.00;32.80;;;;;;5030105;28;20391;-67
2022/02/08 11:25:27;;;;;;;2.42;0.75;;;22.10;33.10;;;;;;5028242;28;20476;-66
2022/02/08 11:28:30;;;;;;;1.80;0.60;;;22.10;32.90;;;;;;5029907;28;20784;-72
2022/02/08 11:31:27;;;;;;;1.40;0.60;;;22.10;32.90;;;;;;5031407;28;20396;-76
2022/02/08 11:45:11;;;;;;;1.25;0.70;;;22.00;32.30;;;;;;5032344;28;20426;-67
2022/02/08 11:59:01;;;;;;;1.27;0.60;;;21.90;32.10;;;;;;5032455;28;20425;-69
2022/02/08 12:29:03;;;;;;;1.20;0.55;;;21.70;31.70;;;;;;5028304;28;20375;-67
2022/02/08 12:34:05;;;;;;;0.87;0.50;;;21.70;31.70;;;;;;5030475;28;20410;-76
2022/02/08 12:39:36;;;;;;;1.35;0.60;;;21.70;31.70;;;;;;5030997;28;20395;-70
2022/02/08 12:55:55;;;;;;;1.52;0.50;;;21.50;31.30;;;;;;5031059;28;20406;-67
2022/02/08 12:58:35;;;;;;;2.60;0.60;;;21.50;32.30;;;;;;5031542;28;20466;-66
2022/02/08 13:01:58;;;;;;;2.28;0.60;;;21.50;32.00;;;;;;5030516;28;20398;-66
2022/02/08 13:05:08;;;;;;;4.05;0.70;;;21.50;32.80;;;;;;5027049;28;20418;-66
2022/02/08 14:02:04;;;;;;;1.30;0.70;;;21.20;32.10;;;;;;5016968;28;20440;-66
2022/02/08 14:07:21;;;;;;;2.17;0.60;;;21.10;31.80;;;;;;5028958;28;20406;-66
2022/02/08 14:10:07;;;;;;;2.60;0.60;;;21.10;31.70;;;;;;5031628;28;21169;-66
2022/02/08 14:17:43;;;;;;;1.08;0.50;;;21.10;31.50;;;;;;5032250;28;20398;-66
2022/02/08 14:20:39;;;;;;;1.40;0.60;;;21.10;31.60;;;;;;5033979;28;20419;-66
2022/02/08 14:24:14;;;;;;;1.15;0.57;;;21.00;31.40;;;;;;5033590;28;20396;-66
2022/02/08 15:08:57;;;;;;;3.90;0.60;;;21.30;30.90;;;;;;5030327;28;20431;-67
2022/02/08 15:11:32;;;;;;;1.08;0.60;;;21.30;30.80;;;;;;5031475;28;20399;-66
2022/02/08 15:13:59;;;;;;;2.40;0.50;;;21.40;30.80;;;;;;5029818;28;20395;-66
2022/02/08 15:16:30;;;;;;;1.33;0.50;;;21.50;30.80;;;;;;5031403;28;20406;-67
2022/02/08 15:18:56;;;;;;;1.47;0.67;;;21.50;30.70;;;;;;5029160;28;20386;-67
2022/02/08 15:21:30;;;;;;;1.90;0.63;;;21.50;30.70;;;;;;5031511;28;20387;-67
2022/02/08 15:23:56;;;;;;;3.85;0.80;;;21.60;30.90;;;;;;5027697;28;20397;-68
2022/02/08 15:26:22;;;;;;;1.70;0.60;;;21.60;31.00;;;;;;5032268;28;20766;-71
2022/02/08 15:28:48;;;;;;;1.88;0.80;;;21.60;31.50;;;;;;5031976;28;20387;-68
2022/02/08 15:31:14;;;;;;;1.30;0.60;;;21.60;31.20;;;;;;5027675;28;20444;-69
2022/02/08 15:33:40;;;;;;;1.90;0.77;;;21.70;31.20;;;;;;5030636;28;20394;-67
2022/02/08 15:36:06;;;;;;;1.58;0.73;;;21.70;32.10;;;;;;5031205;28;20395;-67
2022/02/08 15:38:33;;;;;;;3.57;0.87;;;21.80;32.30;;;;;;5027265;28;20512;-71
2022/02/08 15:41:01;;;;;;;2.38;0.88;;;21.80;32.10;;;;;;5029546;28;20402;-67
2022/02/08 15:43:27;;;;;;;2.45;0.75;;;21.90;31.90;;;;;;5029622;28;20407;-67
2022/02/08 15:46:07;;;;;;;3.13;1.13;;;21.90;32.10;;;;;;5026060;28;20411;-69
2022/02/08 15:48:34;;;;;;;2.08;0.70;;;21.90;31.80;;;;;;5027669;28;20419;-66
2022/02/08 15:51:14;;;;;;;4.18;1.08;;;21.90;31.60;;;;;;5029325;28;20444;-67
2022/02/08 15:56:27;;;;;;;2.47;0.90;;;21.80;30.90;;;;;;5031171;28;20395;-68
2022/02/08 16:19:26;;;;;;;2.20;0.80;;;21.90;30.50;;;;;;5031282;28;20448;-67
2022/02/08 16:27:13;;;;;;;2.90;0.98;;;21.90;30.40;;;;;;5051769;28;20530;-67
2022/02/08 16:30:58;;;;;;;1.65;0.90;;;21.90;30.40;;;;;;5051191;28;20389;-66
2022/02/08 16:59:04;;;;;;;5.13;1.15;;;21.90;31.40;;;;;;5032219;28;20476;-65
2022/02/08 17:01:33;;;;;;;2.60;0.80;;;21.90;32.00;;;;;;5035538;28;20466;-66
2022/02/08 17:03:59;;;;;;;3.05;0.70;;;21.90;32.10;;;;;;5034780;28;20806;-66
2022/02/08 17:06:27;;;;;;;5.22;1.00;;;21.90;32.20;;;;;;5034150;28;20887;-76
2022/02/08 17:09:20;;;;;;;5.45;1.33;;;21.90;32.60;;;;;;5034449;28;20391;-78
2022/02/08 17:11:59;;;;;;;11.73;2.95;;;22.00;32.10;;;;;;5034611;28;20789;-65
2022/02/08 17:14:45;;;;;;;9.70;2.80;;;22.20;33.50;;;;;;5034893;28;20383;-68
2022/02/08 17:49:36;;;;;;;9.60;2.08;;;22.20;32.90;;;;;;5032809;28;20395;-72
2022/02/08 17:52:02;;;;;;;8.27;2.50;;;22.20;34.00;;;;;;5028733;28;20436;-69
2022/02/08 17:54:28;;;;;;;7.13;2.15;;;22.20;33.30;;;;;;5032501;28;20418;-68
2022/02/08 17:56:56;;;;;;;7.03;2.50;;;22.30;33.30;;;;;;5030995;28;20899;-71
2022/02/08 17:59:25;;;;;;;8.68;2.22;;;22.30;33.90;;;;;;5029322;28;20399;-69
2022/02/08 18:01:52;;;;;;;4.85;1.85;;;22.30;34.00;;;;;;5032803;28;20391;-70
2022/02/08 18:04:18;;;;;;;6.97;1.88;;;22.30;33.40;;;;;;5032314;28;20434;-75
2022/02/08 18:06:44;;;;;;;6.37;2.20;;;22.30;33.30;;;;;;5033524;28;20426;-75
2022/02/08 18:09:12;;;;;;;5.70;2.20;;;22.40;33.30;;;;;;5032673;28;20763;-67
2022/02/08 18:11:41;;;;;;;5.30;2.05;;;22.40;33.70;;;;;;5031547;28;20399;-69
2022/02/08 18:14:09;;;;;;;4.13;1.98;;;22.30;33.20;;;;;;5032855;28;20879;-73
2022/02/08 18:16:36;;;;;;;4.07;1.60;;;22.40;33.10;;;;;;5033509;28;20396;-69
2022/02/08 18:19:11;;;;;;;6.15;2.00;;;22.40;33.10;;;;;;5033143;28;20391;-69
2022/02/08 18:21:45;;;;;;;4.67;2.10;;;22.40;33.10;;;;;;5032861;28;20437;-70
2022/02/08 18:24:28;;;;;;;4.38;1.75;;;22.40;32.90;;;;;;5033067;28;20391;-70
2022/02/08 19:07:45;;;;;;;2.10;1.33;;;22.40;32.30;;;;;;5032640;28;20407;-67
2022/02/08 19:11:23;;;;;;;2.30;1.42;;;22.40;32.20;;;;;;5032415;28;20383;-68
2022/02/08 19:21:07;;;;;;;3.58;1.80;;;22.30;32.00;;;;;;5016183;28;20944;-68
2022/02/08 19:23:35;;;;;;;3.28;1.50;;;22.20;31.90;;;;;;5005932;28;20397;-70
2022/02/08 19:26:02;;;;;;;4.07;1.70;;;22.20;31.80;;;;;;5013192;28;20419;-68
2022/02/08 19:28:28;;;;;;;3.35;1.67;;;22.10;31.80;;;;;;5014949;28;20811;-68
2022/02/08 19:30:54;;;;;;;3.87;1.80;;;22.20;31.90;;;;;;5013060;28;20401;-68
2022/02/08 19:33:21;;;;;;;3.28;1.75;;;22.20;31.80;;;;;;5013030;28;20929;-71
2022/02/08 19:35:47;;;;;;;2.47;1.60;;;22.20;31.90;;;;;;5012788;28;20393;-68
2022/02/08 19:38:16;;;;;;;4.40;1.75;;;22.20;31.80;;;;;;5011894;28;20885;-68
2022/02/08 19:40:42;;;;;;;2.90;1.63;;;22.30;32.00;;;;;;5011227;28;20927;-68
2022/02/08 19:43:08;;;;;;;3.80;1.83;;;22.30;32.00;;;;;;5028388;28;20384;-70
2022/02/08 19:45:41;;;;;;;5.28;1.75;;;22.40;32.00;;;;;;5031521;28;20421;-68
2022/02/08 19:48:07;;;;;;;5.75;1.80;;;22.30;31.90;;;;;;5026743;28;20420;-69
2022/02/08 19:50:36;;;;;;;3.75;1.70;;;22.30;32.80;;;;;;5030657;28;20390;-69
2022/02/08 19:53:06;;;;;;;3.40;1.70;;;22.40;32.40;;;;;;5030933;28;20382;-69
2022/02/08 19:58:09;;;;;;;8.07;2.85;;;22.60;33.70;;;;;;5030528;28;20391;-67
2022/02/08 20:00:36;;;;;;;11.85;3.00;;;22.70;33.50;;;;;;5028378;28;20444;-68
2022/02/08 20:03:04;;;;;;;6.25;2.42;;;22.70;33.90;;;;;;5029911;28;20977;-67
2022/02/08 20:05:31;;;;;;;6.15;2.40;;;22.70;33.50;;;;;;5030717;28;20415;-68
2022/02/08 20:07:58;;;;;;;8.63;2.30;;;22.70;33.20;;;;;;5030154;28;20399;-67
2022/02/08 20:10:26;;;;;;;5.10;2.35;;;22.70;32.90;;;;;;5030694;28;20406;-68
2022/02/08 20:12:52;;;;;;;5.90;2.47;;;22.70;32.90;;;;;;5030784;28;20387;-68
2022/02/08 20:15:19;;;;;;;4.82;2.55;;;22.60;32.70;;;;;;5028581;28;20401;-67
2022/02/08 20:17:50;;;;;;;4.97;2.20;;;22.70;32.70;;;;;;5030525;28;20465;-68
2022/02/08 20:20:16;;;;;;;7.10;2.30;;;22.70;32.90;;;;;;5031181;28;20387;-67
2022/02/08 20:22:46;;;;;;;4.67;2.30;;;22.60;32.40;;;;;;5030612;28;20721;-67
2022/02/08 20:25:15;;;;;;;5.90;2.20;;;22.60;32.40;;;;;;5030752;28;20418;-67
2022/02/08 20:27:50;;;;;;;5.45;2.10;;;22.60;32.40;;;;;;5030347;28;20497;-68
2022/02/08 20:30:20;;;;;;;3.55;2.15;;;22.60;32.40;;;;;;5030218;28;20839;-68
2022/02/08 20:32:46;;;;;;;5.07;2.08;;;22.60;32.50;;;;;;5027857;28;20787;-67
2022/02/08 20:35:12;;;;;;;4.25;2.10;;;22.60;32.40;;;;;;5020383;28;20411;-67
2022/02/08 20:37:41;;;;;;;5.05;2.20;;;22.70;32.30;;;;;;5028901;28;20498;-67
2022/02/08 20:40:08;;;;;;;5.00;2.15;;;22.60;32.30;;;;;;5025765;28;20387;-67
2022/02/08 20:42:34;;;;;;;5.57;2.15;;;22.60;32.20;;;;;;5029572;28;20399;-67
2022/02/08 20:44:59;;;;;;;3.08;1.70;;;22.60;32.20;;;;;;5028732;28;20422;-67
2022/02/08 20:47:26;;;;;;;4.40;2.10;;;22.60;32.20;;;;;;5029746;28;20392;-68
2022/02/08 20:50:08;;;;;;;4.82;2.10;;;22.60;32.10;;;;;;5027714;28;20391;-68
2022/02/08 20:52:39;;;;;;;2.65;1.67;;;22.60;32.10;;;;;;5028142;28;20413;-67
2022/02/08 20:55:06;;;;;;;3.92;1.70;;;22.60;32.10;;;;;;5030835;28;20493;-67
2022/02/08 20:57:36;;;;;;;4.03;1.90;;;22.60;32.10;;;;;;5028904;28;20748;-67
2022/02/08 21:00:13;;;;;;;3.50;1.80;;;22.60;32.10;;;;;;5015636;28;20422;-67
2022/02/08 21:02:52;;;;;;;3.50;1.80;;;22.60;32.00;;;;;;5029470;28;20921;-67
2022/02/08 21:05:32;;;;;;;3.43;1.70;;;22.60;32.10;;;;;;5030877;28;20862;-68
2022/02/08 21:07:58;;;;;;;2.50;1.50;;;22.60;32.00;;;;;;5015284;28;20441;-68
2022/02/08 21:10:24;;;;;;;5.23;1.87;;;22.60;31.80;;;;;;5030820;28;20391;-68
2022/02/08 21:15:35;;;;;;;5.65;1.80;;;22.40;31.70;;;;;;5030431;28;20374;-65
2022/02/08 21:18:02;;;;;;;6.47;1.90;;;22.30;31.70;;;;;;5030127;28;20391;-70
2022/02/08 21:20:28;;;;;;;4.32;1.80;;;22.30;31.80;;;;;;5030802;28;20402;-66
2022/02/08 21:22:53;;;;;;;2.55;1.40;;;22.30;31.80;;;;;;5030630;28;20877;-66
2022/02/08 21:25:19;;;;;;;3.30;1.63;;;22.20;31.80;;;;;;5030686;28;20410;-66
2022/02/08 21:27:53;;;;;;;3.70;1.50;;;22.20;31.70;;;;;;5030634;28;20400;-66
2022/02/08 21:30:51;;;;;;;3.00;1.83;;;22.20;31.70;;;;;;5030413;28;20387;-71
2022/02/08 21:49:35;;;;;;;2.70;1.50;;;22.10;31.60;;;;;;5034788;28;20790;-69
2022/02/08 21:54:38;;;;;;;4.03;1.60;;;22.20;31.90;;;;;;5024935;28;20484;-68
2022/02/08 21:57:07;;;;;;;2.65;1.60;;;22.20;32.10;;;;;;5027897;28;20848;-67
2022/02/08 21:59:32;;;;;;;4.28;1.75;;;22.20;31.90;;;;;;5018367;28;20992;-67
2022/02/08 22:01:58;;;;;;;3.15;1.50;;;22.20;31.80;;;;;;5033703;28;20478;-67
2022/02/08 22:04:24;;;;;;;4.95;1.63;;;22.20;31.80;;;;;;5032656;28;20403;-69
2022/02/08 22:06:51;;;;;;;3.40;1.40;;;22.20;31.80;;;;;;5032781;28;20414;-66
2022/02/08 22:09:22;;;;;;;3.60;1.48;;;22.20;31.80;;;;;;5035049;28;20752;-66
2022/02/08 22:27:57;;;;;;;2.95;1.40;;;22.10;31.60;;;;;;5032211;28;20915;-77
2022/02/08 22:30:49;;;;;;;3.20;1.13;;;22.10;31.60;;;;;;5031688;28;20428;-68
2022/02/08 22:33:09;;;;;;;3.03;1.40;;;22.20;31.60;;;;;;5033393;28;20415;-67
2022/02/08 22:35:39;;;;;;;2.30;1.13;;;22.10;31.60;;;;;;5034095;28;20383;-67
2022/02/08 22:38:18;;;;;;;2.78;1.10;;;22.10;31.50;;;;;;5033016;28;20494;-68
2022/02/08 22:40:49;;;;;;;2.20;1.20;;;22.10;31.50;;;;;;5024014;28;20432;-67
2022/02/08 22:43:20;;;;;;;4.25;1.40;;;22.10;31.50;;;;;;5028523;28;20388;-66
2022/02/08 22:45:45;;;;;;;2.88;1.30;;;22.10;31.50;;;;;;5031868;28;20427;-67
2022/02/08 22:48:12;;;;;;;2.10;1.10;;;22.10;32.10;;;;;;5027757;28;20559;-67
2022/02/08 22:50:38;;;;;;;2.28;1.10;;;22.10;31.50;;;;;;5013518;28;20404;-67
2022/02/08 22:53:05;;;;;;;2.65;1.13;;;22.10;31.50;;;;;;5013683;28;20442;-66
2022/02/08 22:55:32;;;;;;;2.85;1.20;;;22.10;31.50;;;;;;5013113;28;20411;-68